Perseverance — WDD5594 — position and weather

sailwx.info

Track history (hours):
 
Tides and Currents Weather Stations Pressure Air Temp Water Temp Dewpoint Dewpoint Depression Visibility Wind Speed Wind Dir Waves Ship Positions

Perseverance

Owner: Cooper, Mark E, Toledo, OR. More information available from US FCC via Universal Licensing System and Coast Guard Vessel Documentation Center.

Last reported at 2014-Nov-20 22:26 UTC. Time now 2014-Dec-20 12:58 UTC.
Position N 45°27' W 124°26'.
Warning: this ship's position is 29 days out of date.

Type: Fishing. MMSI: 367618000.

Date/timePositionNaut miles runAvg speedWind from/ knotsBaromVisibWave heightAir tempDewpointWater temp
2014-Nov-20 22:26N 45°27' W 124°26'5 5.7
2014-Nov-20 21:33N 45°32' W 124°29'6 6.2
2014-Nov-20 20:34N 45°37' W 124°35'6 6.1
2014-Nov-20 19:33N 45°41' W 124°42'7 6.6
2014-Nov-20 18:33N 45°47' W 124°42'7 6.6
2014-Nov-20 17:33N 45°54' W 124°42'7 7.1
2014-Nov-20 16:33N 45°60' W 124°37'6 6.3
2014-Nov-20 15:33N 46°06' W 124°34'7 6.6
2014-Nov-20 14:33N 46°12' W 124°33'7 7.0
2014-Nov-20 13:34N 46°19' W 124°32'7 6.5
2014-Nov-20 12:33N 46°26' W 124°32'6 6.1
2014-Nov-20 11:33N 46°32' W 124°32'3 3.3
2014-Nov-20 10:33N 46°33' W 124°36'2 2.2
2014-Nov-20 09:33N 46°35' W 124°37'6 5.8
2014-Nov-20 08:33N 46°37' W 124°45'4 3.9
2014-Nov-20 07:33N 46°40' W 124°49'0 0.5
2014-Nov-20 06:33N 46°40' W 124°49'5 5.5
2014-Nov-20 05:34N 46°36' W 124°44'7 6.9
2014-Nov-20 04:33N 46°29' W 124°41'7 6.9
2014-Nov-20 03:33N 46°22' W 124°40'8 7.9
2014-Nov-20 02:33N 46°14' W 124°38'7 7.2
2014-Nov-20 01:33N 46°09' W 124°44'7 7.2
2014-Nov-20 00:34N 46°02' W 124°49'7 7.0
2014-Nov-19 23:33N 45°56' W 124°44'7 7.2
2014-Nov-19 22:33N 45°49' W 124°44'7 6.8
2014-Nov-19 21:33N 45°42' W 124°45'8 7.9
2014-Nov-19 20:33N 45°35' W 124°44'8 8.0
2014-Nov-19 19:33N 45°27' W 124°44'8 7.9
2014-Nov-19 18:34N 45°20' W 124°38'8 7.9
2014-Nov-19 17:33N 45°12' W 124°34'  
2014-Nov-14 17:22N 45°31' W 124°44'7 8.1
2014-Nov-14 16:33N 45°37' W 124°46'6 5.7
2014-Nov-14 15:33N 45°43' W 124°46'6 5.7
2014-Nov-14 14:33N 45°49' W 124°46'12 6.1
2014-Nov-14 12:34N 46°01' W 124°48'4 3.6
2014-Nov-14 11:33N 46°05' W 124°46'7 6.6
2014-Nov-14 10:33N 46°10' W 124°41'6 6.4
2014-Nov-14 09:33N 46°16' W 124°38'6 6.1
2014-Nov-14 08:33N 46°22' W 124°37'6 5.6
2014-Nov-14 07:33N 46°28' W 124°36'7 6.7
2014-Nov-14 06:33N 46°33' W 124°43'5 5.4
2014-Nov-14 05:33N 46°37' W 124°47'4 4.2
2014-Nov-14 04:33N 46°41' W 124°51'3 3.4
2014-Nov-14 03:34N 46°44' W 124°52'6 6.0
2014-Nov-14 02:31N 46°39' W 124°47'8 8.2
2014-Nov-14 01:33N 46°35' W 124°37'8 7.5
2014-Nov-14 00:33N 46°30' W 124°29'10 9.7
2014-Nov-13 23:33N 46°23' W 124°20'10 9.9
2014-Nov-13 22:33N 46°16' W 124°10'9 8.8
2014-Nov-13 21:33N 46°13' W 123°58'5 5.3
2014-Nov-13 20:33N 46°12' W 123°50'1 1.1
2014-Nov-13 19:33N 46°11' W 123°52'0 0.0
2014-Nov-13 18:33N 46°11' W 123°52'0 0.0
2014-Nov-13 17:33N 46°11' W 123°52'0 0.0
2014-Nov-13 16:33N 46°11' W 123°52'0 0.0
2014-Nov-13 15:33N 46°11' W 123°52'0 0.0
2014-Nov-13 14:33N 46°11' W 123°52'0 0.0
2014-Nov-13 13:33N 46°11' W 123°52'0 0.0
2014-Nov-13 12:33N 46°11' W 123°52'0 0.0
2014-Nov-13 11:33N 46°11' W 123°52'0 0.0
2014-Nov-13 10:33N 46°11' W 123°52'0 0.0
2014-Nov-13 09:33N 46°11' W 123°52'0 0.0
2014-Nov-13 08:33N 46°11' W 123°52'0 0.0
2014-Nov-13 07:33N 46°11' W 123°52'0 0.0
2014-Nov-13 06:33N 46°11' W 123°52'0 0.0
2014-Nov-13 05:33N 46°11' W 123°52'0 0.0
2014-Nov-13 04:33N 46°11' W 123°52'0 0.0
2014-Nov-13 03:33N 46°11' W 123°52'0 0.0
2014-Nov-13 02:33N 46°11' W 123°52'0 0.0
2014-Nov-13 01:33N 46°11' W 123°52'0 0.0
2014-Nov-13 00:33N 46°11' W 123°52'0 0.0
2014-Nov-12 23:33N 46°11' W 123°52'0 0.0
2014-Nov-12 22:33N 46°11' W 123°52'0 0.0
2014-Nov-12 21:33N 46°11' W 123°52'0 0.0
2014-Nov-12 20:33N 46°11' W 123°52'0 0.0
2014-Nov-12 19:33N 46°11' W 123°52'0 0.0
2014-Nov-12 18:33N 46°11' W 123°52'0 0.0
2014-Nov-12 17:33N 46°11' W 123°52'0 0.0
2014-Nov-12 16:33N 46°11' W 123°52'0 0.0
2014-Nov-12 15:33N 46°11' W 123°52'0 0.0
2014-Nov-12 14:33N 46°11' W 123°52'0 0.0
2014-Nov-12 13:33N 46°11' W 123°52'0 0.0
2014-Nov-12 12:34N 46°11' W 123°52'0 0.0
2014-Nov-12 11:33N 46°11' W 123°52'0 0.0
2014-Nov-12 10:33N 46°11' W 123°52'0 0.0
2014-Nov-12 09:33N 46°11' W 123°52'0 0.0
2014-Nov-12 08:33N 46°11' W 123°52'0 0.0
2014-Nov-12 07:33N 46°11' W 123°52'0 0.0
2014-Nov-12 06:33N 46°11' W 123°52'0 0.0
2014-Nov-12 05:33N 46°11' W 123°52'0 0.0
2014-Nov-12 04:33N 46°11' W 123°52'0 0.0
2014-Nov-12 03:33N 46°11' W 123°52'0 0.0
2014-Nov-12 02:33N 46°11' W 123°52'0 0.0
2014-Nov-12 01:33N 46°11' W 123°52'0 0.0
2014-Nov-12 00:33N 46°11' W 123°52'0 0.0
2014-Nov-11 23:34N 46°11' W 123°52'0 0.0
2014-Nov-11 22:33N 46°11' W 123°52'0 0.0
2014-Nov-11 21:33N 46°11' W 123°52'0 0.0
2014-Nov-11 20:33N 46°11' W 123°52'0 0.0
2014-Nov-11 19:33N 46°11' W 123°52'0 0.0
2014-Nov-11 18:33N 46°11' W 123°52'0 0.0
2014-Nov-11 17:33N 46°11' W 123°52'0 0.0
2014-Nov-11 16:33N 46°11' W 123°52'0 0.0
2014-Nov-11 15:33N 46°11' W 123°52'0 0.0
2014-Nov-11 14:33N 46°11' W 123°52'0 0.0
2014-Nov-11 13:33N 46°11' W 123°52'0 0.0
2014-Nov-11 12:33N 46°11' W 123°52'0 0.0
2014-Nov-11 11:33N 46°11' W 123°52'0 0.0
2014-Nov-11 10:33N 46°11' W 123°52'0 0.0
2014-Nov-11 09:33N 46°11' W 123°52'0 0.0
2014-Nov-11 08:33N 46°11' W 123°52'0 0.0
2014-Nov-11 07:33N 46°11' W 123°52'0 0.1
2014-Nov-11 06:34N 46°11' W 123°52'5 5.1
2014-Nov-11 05:33N 46°14' W 123°58'4 3.6
2014-Nov-11 04:33N 46°15' W 124°03'3 3.0
2014-Nov-11 03:33N 46°15' W 124°07'6 5.8
2014-Nov-11 02:33N 46°18' W 124°14'8 7.9
2014-Nov-11 01:33N 46°23' W 124°23'8 7.8
2014-Nov-11 00:33N 46°29' W 124°31'6 5.9
2014-Nov-10 23:33N 46°34' W 124°35'6 5.5
2014-Nov-10 22:33N 46°34' W 124°43'  
Track history (hours):
 
Tides and Currents Weather Stations Pressure Air Temp Water Temp Dewpoint Dewpoint Depression Visibility Wind Speed Wind Dir Waves Ship Positions

Perseverance

Owner: Cooper, Mark E, Toledo, OR. More information available from US FCC via Universal Licensing System and Coast Guard Vessel Documentation Center.

Last reported at 2014-Nov-20 22:26 UTC. Time now 2014-Dec-20 12:58 UTC.
Position N 45°27' W 124°26'.
Warning: this ship's position is 29 days out of date.

Type: Fishing. MMSI: 367618000.

Date/timePositionNaut miles runAvg speedWind from/ knotsBaromVisibWave heightAir tempDewpointWater temp
2014-Nov-20 22:26N 45°27' W 124°26'5 5.7
2014-Nov-20 21:33N 45°32' W 124°29'6 6.2
2014-Nov-20 20:34N 45°37' W 124°35'6 6.1
2014-Nov-20 19:33N 45°41' W 124°42'7 6.6
2014-Nov-20 18:33N 45°47' W 124°42'7 6.6
2014-Nov-20 17:33N 45°54' W 124°42'7 7.1
2014-Nov-20 16:33N 45°60' W 124°37'6 6.3
2014-Nov-20 15:33N 46°06' W 124°34'7 6.6
2014-Nov-20 14:33N 46°12' W 124°33'7 7.0
2014-Nov-20 13:34N 46°19' W 124°32'7 6.5
2014-Nov-20 12:33N 46°26' W 124°32'6 6.1
2014-Nov-20 11:33N 46°32' W 124°32'3 3.3
2014-Nov-20 10:33N 46°33' W 124°36'2 2.2
2014-Nov-20 09:33N 46°35' W 124°37'6 5.8
2014-Nov-20 08:33N 46°37' W 124°45'4 3.9
2014-Nov-20 07:33N 46°40' W 124°49'0 0.5
2014-Nov-20 06:33N 46°40' W 124°49'5 5.5
2014-Nov-20 05:34N 46°36' W 124°44'7 6.9
2014-Nov-20 04:33N 46°29' W 124°41'7 6.9
2014-Nov-20 03:33N 46°22' W 124°40'8 7.9
2014-Nov-20 02:33N 46°14' W 124°38'7 7.2
2014-Nov-20 01:33N 46°09' W 124°44'7 7.2
2014-Nov-20 00:34N 46°02' W 124°49'7 7.0
2014-Nov-19 23:33N 45°56' W 124°44'7 7.2
2014-Nov-19 22:33N 45°49' W 124°44'7 6.8
2014-Nov-19 21:33N 45°42' W 124°45'8 7.9
2014-Nov-19 20:33N 45°35' W 124°44'8 8.0
2014-Nov-19 19:33N 45°27' W 124°44'8 7.9
2014-Nov-19 18:34N 45°20' W 124°38'8 7.9
2014-Nov-19 17:33N 45°12' W 124°34'  
2014-Nov-14 17:22N 45°31' W 124°44'7 8.1
2014-Nov-14 16:33N 45°37' W 124°46'6 5.7
2014-Nov-14 15:33N 45°43' W 124°46'6 5.7
2014-Nov-14 14:33N 45°49' W 124°46'12 6.1
2014-Nov-14 12:34N 46°01' W 124°48'4 3.6
2014-Nov-14 11:33N 46°05' W 124°46'7 6.6
2014-Nov-14 10:33N 46°10' W 124°41'6 6.4
2014-Nov-14 09:33N 46°16' W 124°38'6 6.1
2014-Nov-14 08:33N 46°22' W 124°37'6 5.6
2014-Nov-14 07:33N 46°28' W 124°36'7 6.7
2014-Nov-14 06:33N 46°33' W 124°43'5 5.4
2014-Nov-14 05:33N 46°37' W 124°47'4 4.2
2014-Nov-14 04:33N 46°41' W 124°51'3 3.4
2014-Nov-14 03:34N 46°44' W 124°52'6 6.0
2014-Nov-14 02:31N 46°39' W 124°47'8 8.2
2014-Nov-14 01:33N 46°35' W 124°37'8 7.5
2014-Nov-14 00:33N 46°30' W 124°29'10 9.7
2014-Nov-13 23:33N 46°23' W 124°20'10 9.9
2014-Nov-13 22:33N 46°16' W 124°10'9 8.8
2014-Nov-13 21:33N 46°13' W 123°58'5 5.3
2014-Nov-13 20:33N 46°12' W 123°50'1 1.1
2014-Nov-13 19:33N 46°11' W 123°52'0 0.0
2014-Nov-13 18:33N 46°11' W 123°52'0 0.0
2014-Nov-13 17:33N 46°11' W 123°52'0 0.0
2014-Nov-13 16:33N 46°11' W 123°52'0 0.0
2014-Nov-13 15:33N 46°11' W 123°52'0 0.0
2014-Nov-13 14:33N 46°11' W 123°52'0 0.0
2014-Nov-13 13:33N 46°11' W 123°52'0 0.0
2014-Nov-13 12:33N 46°11' W 123°52'0 0.0
2014-Nov-13 11:33N 46°11' W 123°52'0 0.0
2014-Nov-13 10:33N 46°11' W 123°52'0 0.0
2014-Nov-13 09:33N 46°11' W 123°52'0 0.0
2014-Nov-13 08:33N 46°11' W 123°52'0 0.0
2014-Nov-13 07:33N 46°11' W 123°52'0 0.0
2014-Nov-13 06:33N 46°11' W 123°52'0 0.0
2014-Nov-13 05:33N 46°11' W 123°52'0 0.0
2014-Nov-13 04:33N 46°11' W 123°52'0 0.0
2014-Nov-13 03:33N 46°11' W 123°52'0 0.0
2014-Nov-13 02:33N 46°11' W 123°52'0 0.0
2014-Nov-13 01:33N 46°11' W 123°52'0 0.0
2014-Nov-13 00:33N 46°11' W 123°52'0 0.0
2014-Nov-12 23:33N 46°11' W 123°52'0 0.0
2014-Nov-12 22:33N 46°11' W 123°52'0 0.0
2014-Nov-12 21:33N 46°11' W 123°52'0 0.0
2014-Nov-12 20:33N 46°11' W 123°52'0 0.0
2014-Nov-12 19:33N 46°11' W 123°52'0 0.0
2014-Nov-12 18:33N 46°11' W 123°52'0 0.0
2014-Nov-12 17:33N 46°11' W 123°52'0 0.0
2014-Nov-12 16:33N 46°11' W 123°52'0 0.0
2014-Nov-12 15:33N 46°11' W 123°52'0 0.0
2014-Nov-12 14:33N 46°11' W 123°52'0 0.0
2014-Nov-12 13:33N 46°11' W 123°52'0 0.0
2014-Nov-12 12:34N 46°11' W 123°52'0 0.0
2014-Nov-12 11:33N 46°11' W 123°52'0 0.0
2014-Nov-12 10:33N 46°11' W 123°52'0 0.0
2014-Nov-12 09:33N 46°11' W 123°52'0 0.0
2014-Nov-12 08:33N 46°11' W 123°52'0 0.0
2014-Nov-12 07:33N 46°11' W 123°52'0 0.0
2014-Nov-12 06:33N 46°11' W 123°52'0 0.0
2014-Nov-12 05:33N 46°11' W 123°52'0 0.0
2014-Nov-12 04:33N 46°11' W 123°52'0 0.0
2014-Nov-12 03:33N 46°11' W 123°52'0 0.0
2014-Nov-12 02:33N 46°11' W 123°52'0 0.0
2014-Nov-12 01:33N 46°11' W 123°52'0 0.0
2014-Nov-12 00:33N 46°11' W 123°52'0 0.0
2014-Nov-11 23:34N 46°11' W 123°52'0 0.0
2014-Nov-11 22:33N 46°11' W 123°52'0 0.0
2014-Nov-11 21:33N 46°11' W 123°52'0 0.0
2014-Nov-11 20:33N 46°11' W 123°52'0 0.0
2014-Nov-11 19:33N 46°11' W 123°52'0 0.0
2014-Nov-11 18:33N 46°11' W 123°52'0 0.0
2014-Nov-11 17:33N 46°11' W 123°52'0 0.0
2014-Nov-11 16:33N 46°11' W 123°52'0 0.0
2014-Nov-11 15:33N 46°11' W 123°52'0 0.0
2014-Nov-11 14:33N 46°11' W 123°52'0 0.0
2014-Nov-11 13:33N 46°11' W 123°52'0 0.0
2014-Nov-11 12:33N 46°11' W 123°52'0 0.0
2014-Nov-11 11:33N 46°11' W 123°52'0 0.0
2014-Nov-11 10:33N 46°11' W 123°52'0 0.0
2014-Nov-11 09:33N 46°11' W 123°52'0 0.0
2014-Nov-11 08:33N 46°11' W 123°52'0 0.0
2014-Nov-11 07:33N 46°11' W 123°52'0 0.1
2014-Nov-11 06:34N 46°11' W 123°52'5 5.1
2014-Nov-11 05:33N 46°14' W 123°58'4 3.6
2014-Nov-11 04:33N 46°15' W 124°03'3 3.0
2014-Nov-11 03:33N 46°15' W 124°07'6 5.8
2014-Nov-11 02:33N 46°18' W 124°14'8 7.9
2014-Nov-11 01:33N 46°23' W 124°23'8 7.8
2014-Nov-11 00:33N 46°29' W 124°31'6 5.9
2014-Nov-10 23:33N 46°34' W 124°35'6 5.5
2014-Nov-10 22:33N 46°34' W 124°43'  

Dump ship's entire track history